createdAt,value
2023-03-03T00:00:11.425Z,0.70
2023-03-03T00:04:13.067Z,0.60
2023-03-03T00:08:14.804Z,0.60
2023-03-03T00:12:19.408Z,0.60
2023-03-03T00:16:25.594Z,0.30
2023-03-03T00:20:38.215Z,0.30
2023-03-03T00:24:39.892Z,0.30
2023-03-03T00:28:45.249Z,0.30
2023-03-03T00:32:53.147Z,0.10
2023-03-03T00:36:56.189Z,0.20
2023-03-03T00:40:57.866Z,0.10
2023-03-03T00:45:00.286Z,0.00
2023-03-03T00:49:02.438Z,0.00
2023-03-03T00:53:11.215Z,0.00
2023-03-03T00:57:13.234Z,0.10
2023-03-03T01:01:16.007Z,0.10
2023-03-03T01:05:17.967Z,0.10
2023-03-03T01:09:19.654Z,0.30
2023-03-03T01:13:23.754Z,0.40
2023-03-03T01:17:25.460Z,0.40
2023-03-03T01:21:27.066Z,0.40
2023-03-03T01:25:28.840Z,0.20
2023-03-03T01:29:30.593Z,-0.20
2023-03-03T01:33:33.491Z,-0.10
2023-03-03T01:37:36.033Z,-0.10
2023-03-03T01:41:37.794Z,-0.10
2023-03-03T01:46:06.186Z,0.00
2023-03-03T01:50:12.424Z,0.20
2023-03-03T01:54:23.835Z,0.30
2023-03-03T01:58:30.738Z,0.30
2023-03-03T02:02:33.093Z,-0.40
2023-03-03T02:06:37.184Z,-0.50
2023-03-03T02:10:38.792Z,-0.40
2023-03-03T02:14:40.342Z,-0.30
2023-03-03T02:18:42.088Z,-0.30
2023-03-03T02:27:47.361Z,-0.30
2023-03-03T02:31:49.004Z,-0.40
2023-03-03T02:35:50.723Z,-0.40
2023-03-03T02:39:52.360Z,-0.20
2023-03-03T02:43:59.584Z,-0.10
2023-03-03T02:48:01.418Z,0.00
2023-03-03T02:52:05.537Z,-0.20
2023-03-03T02:56:09.465Z,0.00
2023-03-03T03:00:11.371Z,0.00
2023-03-03T03:04:13.206Z,-0.10
2023-03-03T03:08:15.183Z,0.00
2023-03-03T03:12:19.264Z,-0.10
2023-03-03T03:16:20.948Z,-0.20
2023-03-03T03:20:22.708Z,-0.10
2023-03-03T03:24:24.315Z,-0.20
2023-03-03T03:28:25.956Z,-0.30
2023-03-03T03:32:27.617Z,-0.20
2023-03-03T03:36:29.297Z,-0.20
2023-03-03T03:40:30.878Z,-0.20
2023-03-03T03:44:32.511Z,-0.30
2023-03-03T03:48:34.217Z,-0.30
2023-03-03T03:52:35.850Z,-0.40
2023-03-03T03:56:37.529Z,-0.40
2023-03-03T04:00:40.565Z,-0.60
2023-03-03T04:04:42.200Z,-0.40
2023-03-03T04:08:43.782Z,-0.40
2023-03-03T04:12:45.571Z,-0.40
2023-03-03T07:26:38.266Z,-0.60
2023-03-03T07:30:40.598Z,-0.50
2023-03-03T07:34:47.747Z,-0.60
2023-03-03T07:38:58.448Z,-0.60
2023-03-03T07:43:00.177Z,-0.60
2023-03-03T07:47:12.978Z,-0.50
2023-03-03T07:51:29.016Z,-0.60
2023-03-03T07:55:34.775Z,-0.40
2023-03-03T07:59:37.109Z,-0.50
2023-03-03T08:03:38.718Z,-0.50
2023-03-03T08:07:40.316Z,-0.50
2023-03-03T08:11:49.243Z,-0.40
2023-03-03T08:16:11.206Z,-0.40
2023-03-03T08:20:36.485Z,-0.50
2023-03-03T08:24:38.634Z,-0.50
2023-03-03T08:28:42.357Z,-0.60
2023-03-03T08:32:44.050Z,-0.50
2023-03-03T08:36:47.348Z,-0.50
2023-03-03T08:40:49.497Z,-0.30
2023-03-03T08:44:51.154Z,-0.40
2023-03-03T08:48:52.787Z,-0.40
2023-03-03T08:52:54.542Z,-0.50
2023-03-03T08:56:56.258Z,-0.50
2023-03-03T09:00:59.102Z,-0.40
2023-03-03T09:05:00.934Z,-0.30
2023-03-03T09:09:03.163Z,-0.40
2023-03-03T09:13:09.379Z,-0.20
2023-03-03T09:17:37.660Z,-0.30
2023-03-03T09:21:40.985Z,-0.30
2023-03-03T09:25:42.621Z,-0.20
2023-03-03T09:29:44.236Z,-0.10
2023-03-03T09:33:47.425Z,-0.30
2023-03-03T09:37:50.487Z,-0.40
2023-03-03T09:41:58.219Z,-0.20
2023-03-03T09:45:59.981Z,-0.20
2023-03-03T09:50:20.210Z,-0.20
2023-03-03T09:54:33.965Z,-0.20
2023-03-03T09:58:45.624Z,-0.20
2023-03-03T10:02:57.835Z,-0.30
2023-03-03T10:07:08.430Z,0.00
2023-03-03T10:11:13.026Z,-0.20
2023-03-03T10:15:14.559Z,-0.20
2023-03-03T10:19:30.252Z,0.00
2023-03-03T10:23:42.308Z,0.10
2023-03-03T10:27:50.034Z,0.00
2023-03-03T10:32:10.648Z,0.00
2023-03-03T10:36:15.603Z,0.10
2023-03-03T10:40:23.752Z,0.00
2023-03-03T10:44:31.583Z,0.00
2023-03-03T10:48:39.870Z,0.20
2023-03-03T10:52:47.631Z,0.20
2023-03-03T10:56:53.855Z,0.20
2023-03-03T11:01:02.551Z,0.10
2023-03-03T11:05:15.667Z,0.20
2023-03-03T11:09:17.273Z,0.30
2023-03-03T11:13:29.096Z,0.10
2023-03-03T11:17:51.012Z,0.20
2023-03-03T11:22:05.406Z,0.10
2023-03-03T11:26:28.079Z,0.20
2023-03-03T11:30:48.569Z,0.20
2023-03-03T11:35:09.007Z,0.30
2023-03-03T11:39:15.753Z,0.30
2023-03-03T11:43:34.137Z,0.30
2023-03-03T11:48:03.636Z,0.60
2023-03-03T11:52:11.980Z,0.60
2023-03-03T11:56:32.432Z,0.30
2023-03-03T12:00:38.933Z,0.30
2023-03-03T12:04:43.550Z,0.50
2023-03-03T12:08:54.042Z,0.40
2023-03-03T12:13:03.438Z,0.50
2023-03-03T12:17:09.930Z,0.50
2023-03-03T12:21:22.984Z,0.60
2023-03-03T12:25:31.503Z,0.70
2023-03-03T12:29:41.912Z,0.70
2023-03-03T12:33:58.682Z,0.60
2023-03-03T12:38:00.410Z,0.60
2023-03-03T12:42:04.427Z,0.80
2023-03-03T12:46:30.210Z,0.60
2023-03-03T12:50:37.123Z,0.80
2023-03-03T12:54:41.859Z,0.50
2023-03-03T12:58:55.669Z,0.70
2023-03-03T13:03:18.585Z,0.90
2023-03-03T13:07:25.913Z,0.70
2023-03-03T13:11:35.617Z,1.10
2023-03-03T13:15:56.473Z,0.90
2023-03-03T13:20:05.465Z,0.90
2023-03-03T13:24:26.112Z,0.80
2023-03-03T13:28:56.929Z,0.90
2023-03-03T13:33:31.309Z,0.90
2023-03-03T13:37:39.010Z,0.90
2023-03-03T13:41:49.894Z,1.10
2023-03-03T13:46:10.387Z,1.10
2023-03-03T13:50:17.172Z,1.20
2023-03-03T13:54:45.267Z,1.10
2023-03-03T13:58:52.732Z,1.40
2023-03-03T14:02:54.406Z,1.30
2023-03-03T14:06:59.997Z,1.30
2023-03-03T14:11:04.819Z,1.40
2023-03-03T14:15:09.705Z,1.30
2023-03-03T14:19:17.434Z,1.30
2023-03-03T14:23:22.985Z,1.30
2023-03-03T14:27:26.396Z,1.40
2023-03-03T14:31:39.434Z,1.30
2023-03-03T14:35:42.979Z,1.30
2023-03-03T14:39:47.937Z,1.30
2023-03-03T14:43:59.750Z,1.40
2023-03-03T14:48:09.974Z,1.50
2023-03-03T14:52:19.316Z,1.50
2023-03-03T14:56:27.199Z,1.50
2023-03-03T15:00:32.344Z,1.50
2023-03-03T15:04:35.240Z,1.50
2023-03-03T15:08:39.180Z,1.50
2023-03-03T15:12:41.741Z,1.60
2023-03-03T15:16:46.655Z,1.70
2023-03-03T15:20:54.595Z,1.60
2023-03-03T15:25:05.314Z,1.60
2023-03-03T15:29:10.267Z,1.60
2023-03-03T15:33:21.214Z,1.50
2023-03-03T15:37:39.654Z,1.60
2023-03-03T15:41:48.156Z,1.60
2023-03-03T15:46:12.958Z,1.50
2023-03-03T15:50:14.628Z,1.60
2023-03-03T15:54:19.267Z,1.60
2023-03-03T15:58:26.979Z,1.50
2023-03-03T16:02:43.157Z,1.50
2023-03-03T16:06:44.758Z,1.60
2023-03-03T16:10:46.435Z,1.70
2023-03-03T16:15:03.318Z,1.50
2023-03-03T16:19:24.142Z,1.60
2023-03-03T16:23:31.843Z,1.40
2023-03-03T16:27:39.561Z,1.50
2023-03-03T16:31:45.346Z,1.60
2023-03-03T16:36:07.219Z,1.60
2023-03-03T16:40:19.921Z,1.50
2023-03-03T16:44:33.994Z,1.60
2023-03-03T16:48:50.419Z,1.40
2023-03-03T16:52:52.025Z,1.60
2023-03-03T16:57:02.858Z,1.60
2023-03-03T17:01:04.528Z,1.50
2023-03-03T17:05:41.848Z,1.50
2023-03-03T17:09:54.682Z,1.40
2023-03-03T17:13:56.300Z,1.50
2023-03-03T17:17:57.881Z,1.50
2023-03-03T17:21:59.595Z,1.50
2023-03-03T17:26:04.182Z,1.40
2023-03-03T17:30:12.002Z,1.30
2023-03-03T17:34:28.880Z,1.30
2023-03-03T17:38:30.489Z,1.30
2023-03-03T17:42:32.123Z,1.30
2023-03-03T17:46:35.228Z,1.40
2023-03-03T17:50:56.320Z,1.30
2023-03-03T17:55:10.128Z,1.40
2023-03-03T17:59:14.813Z,1.40
2023-03-03T18:03:27.799Z,1.30
2023-03-03T18:07:41.554Z,1.30
2023-03-03T18:12:00.457Z,1.10
2023-03-03T18:16:19.436Z,1.00
2023-03-03T18:20:39.929Z,1.00
2023-03-03T18:24:50.695Z,1.00
2023-03-03T18:29:04.877Z,1.00
2023-03-03T18:33:11.199Z,1.00
2023-03-03T18:37:31.384Z,0.90
2023-03-03T18:41:59.424Z,0.90
2023-03-03T18:46:01.067Z,0.90
2023-03-03T18:50:15.059Z,0.60
2023-03-03T18:54:20.992Z,0.70
2023-03-03T18:58:42.930Z,0.60
2023-03-03T19:02:56.614Z,0.70
2023-03-03T19:07:09.232Z,0.60
2023-03-03T19:11:29.705Z,0.60
2023-03-03T19:15:31.466Z,0.60
2023-03-03T19:19:34.806Z,0.60
2023-03-03T19:23:59.795Z,0.60
2023-03-03T19:28:19.844Z,0.50
2023-03-03T19:32:26.336Z,0.50
2023-03-03T19:36:43.202Z,0.60
2023-03-03T19:40:47.843Z,0.50
2023-03-03T19:45:03.114Z,0.50
2023-03-03T19:49:04.786Z,0.40
2023-03-03T19:53:06.480Z,0.50
2023-03-03T19:57:10.708Z,0.50
2023-03-03T20:01:24.780Z,0.40
2023-03-03T20:05:38.692Z,0.10
2023-03-03T20:09:49.361Z,-0.10
2023-03-03T20:14:26.547Z,-0.20
2023-03-03T20:18:28.186Z,-0.10
2023-03-03T20:22:29.965Z,-0.20
2023-03-03T20:26:35.219Z,-0.30
2023-03-03T20:30:44.474Z,-0.30
2023-03-03T20:34:51.807Z,-0.30
2023-03-03T20:39:11.163Z,-0.50
2023-03-03T20:43:15.824Z,-0.50
2023-03-03T20:47:17.432Z,-0.60
2023-03-03T20:51:28.630Z,-0.60
2023-03-03T20:55:40.229Z,-0.50
2023-03-03T20:59:45.110Z,-0.60
2023-03-03T21:03:46.874Z,-0.50
2023-03-03T21:07:52.915Z,-0.50
2023-03-03T21:11:55.310Z,-0.50
2023-03-03T21:16:02.134Z,-0.60
2023-03-03T21:20:20.478Z,-0.60
2023-03-03T21:24:22.691Z,-0.70
2023-03-03T21:28:31.981Z,-0.60
2023-03-03T21:32:44.355Z,-0.50
2023-03-03T21:36:47.356Z,-0.40
2023-03-03T21:40:59.058Z,-0.20
2023-03-03T21:45:09.374Z,-0.20
2023-03-03T21:49:11.167Z,0.00
2023-03-03T21:53:12.929Z,-0.10
2023-03-03T21:57:14.557Z,-0.10
2023-03-03T22:01:16.425Z,0.10
2023-03-03T22:05:18.176Z,0.10
2023-03-03T22:09:20.138Z,0.30
2023-03-03T22:13:22.836Z,0.50
2023-03-03T22:17:25.649Z,0.40
2023-03-03T22:21:27.281Z,0.30
2023-03-03T22:25:29.116Z,0.50
2023-03-03T22:29:30.697Z,0.50
2023-03-03T22:33:33.936Z,0.50
2023-03-03T22:37:35.623Z,0.60
2023-03-03T22:41:37.491Z,0.80
2023-03-03T22:45:39.130Z,0.80
2023-03-03T22:49:40.788Z,0.70
2023-03-03T22:53:42.566Z,0.80
2023-03-03T22:57:44.276Z,0.80
2023-03-03T23:01:45.999Z,0.90
2023-03-03T23:05:50.286Z,1.00
2023-03-03T23:09:53.312Z,1.00
2023-03-03T23:13:54.987Z,1.20
2023-03-03T23:17:56.649Z,1.30
2023-03-03T23:21:59.357Z,1.30
2023-03-03T23:26:01.107Z,1.40
2023-03-03T23:30:02.960Z,1.40
2023-03-03T23:34:04.779Z,1.40
2023-03-03T23:38:06.400Z,1.50
2023-03-03T23:42:08.046Z,1.60
2023-03-03T23:46:10.047Z,1.60
2023-03-03T23:50:12.542Z,1.70
2023-03-03T23:54:14.229Z,1.70
2023-03-03T23:58:15.839Z,1.80
